Aérodrome :
LOGIN :

S'inscrire | Disclaimer

   EN    FR    IT 

 










Légende :    VFR   VFR Marginal   IFR   IFR Intensif   IFR Très Intensif
Visi : 
Plafond : 
>= 8 km
>= 3000ft
5 à 8 km
1000 à 3000 ft
1500m à 5 km
500 à 1000 ft
800 à 1500m
200 à 500 ft
< 800m
< 200 ft
Symboles :   Orages  Brouillard  Fortes neiges  Fortes précipitations  Vent > 20 kt
SIGMETs :   Divers  Orages  Givrage  Turbulence  Onde Orograph.  Cendres Volcan.







- Altitude de l'aérodrome : 7 ft
- Code IATA : XHE
- Voir les cartes d'approche


LFTH - Hyeres

DERNIER METAR :
  • 122200Z AUTO 08011KT CAVOK 19/15 Q1025 TEMPO BKN014

METARs EXPIRÉS :
  • 122130Z AUTO VRB02KT CAVOK 18/15 Q1025 TEMPO BKN014
  • 122100Z AUTO 06004KT 010V080 CAVOK 18/15 Q1025 TEMPO BKN014
  • 122030Z AUTO 05005KT CAVOK 18/14 Q1024 TEMPO BKN014
  • 122000Z AUTO 04005KT 9999 OVC049 18/14 Q1024 BECMG 09016KT
  • 121930Z AUTO 05006KT 020V080 9999 OVC049 18/14 Q1024 BECMG 09016KT

TAF TAF LFTH
Valide du 12 à 21h jusqu'au 13 à 21h UTC


122000Z 1221/1321 06010KT CAVOK
TEMPO 1221/1306 VRB03KT BKN014
BECMG 1306/1309 VRB03KT
TEMPO 1309/1318 10009KT
Pas de NOTAMs connus pour ce terrain.



MET'MAP, la Météo Aéronautique d'un coup d'oeil ! - Copyright ORBIFLY Décembre 2007 - Disclaimer

ORBIFLY MET'MAP TEAM :

Programmation & Développement : Alexandra Zaïnal
Conception & Développement : Baudouin d'Aumeries
Co-Programmation & Développement : Marc-Olivier Méhu
Soutien technique & logistique : Manuel Goepfert

Contact : metmap@orbifly.com




SOURCES & CREDITS :

   NOAA